Black Rock Airport


Codes: KZUN/
Name: Black Rock Airport
City: Zuni Pueblo
Country: United States
Elevation: 6454 ft.
Wikipedia:

Photos at Black Rock Airport


   Photos courtesy of SpottingLog. You can add your own sightings and photos by signing up for a free trial today.



No photos found.

Weather at Black Rock Airport


Time (UTC)DescriptionTempratureWindCloud coverageVisibilityPressureHumidity
16-Jun-2024 03:00Clear Sky29°C7 mph, NW5%10000m1006hPa11%
16-Jun-2024 06:00Clear Sky24°C9 mph, W3%10000m1008hPa14%
16-Jun-2024 09:00Clear Sky15°C4 mph, SW0%10000m1011hPa29%
16-Jun-2024 12:00Clear Sky14°C4 mph, SW0%10000m1012hPa31%
16-Jun-2024 15:00Clear Sky24°C7 mph, W0%10000m1011hPa18%
16-Jun-2024 18:00Clear Sky29°C16 mph, SW0%10000m1007hPa13%
16-Jun-2024 21:00Clear Sky32°C16 mph, SW0%10000m1004hPa7%
17-Jun-2024 00:00Clear Sky31°C22 mph, SW0%10000m1002hPa7%
17-Jun-2024 03:00Clear Sky23°C18 mph, W0%10000m1005hPa12%
17-Jun-2024 06:00Clear Sky16°C4 mph, SW0%10000m1008hPa22%
17-Jun-2024 09:00Clear Sky15°C4 mph, SW0%10000m1007hPa25%
17-Jun-2024 12:00Clear Sky13°C4 mph, S0%10000m1007hPa29%
17-Jun-2024 15:00Clear Sky23°C16 mph, SW0%10000m1006hPa18%
17-Jun-2024 18:00Clear Sky28°C18 mph, SW0%10000m1003hPa10%
17-Jun-2024 21:00Clear Sky31°C25 mph, SW0%10000m1000hPa8%
18-Jun-2024 00:00Clear Sky29°C29 mph, SW0%10000m999hPa11%
18-Jun-2024 03:00Clear Sky22°C22 mph, SW0%10000m1003hPa15%
18-Jun-2024 06:00Clear Sky17°C9 mph, SW0%10000m1006hPa24%
18-Jun-2024 09:00Clear Sky13°C4 mph, SW0%10000m1006hPa32%
18-Jun-2024 12:00Clear Sky12°C4 mph, S0%10000m1007hPa36%
18-Jun-2024 15:00Clear Sky20°C16 mph, SW0%10000m1007hPa18%
18-Jun-2024 18:00Clear Sky25°C13 mph, SW0%10000m1006hPa14%
18-Jun-2024 21:00Clear Sky28°C16 mph, SW4%10000m1004hPa12%
19-Jun-2024 00:00Clear Sky28°C13 mph, SW4%10000m1003hPa12%
19-Jun-2024 03:00Clear Sky21°C11 mph, SW3%10000m1006hPa20%
19-Jun-2024 06:00Clear Sky16°C4 mph, SW4%10000m1010hPa28%
19-Jun-2024 09:00Clear Sky13°C2 mph, S4%10000m1010hPa37%
19-Jun-2024 12:00Clear Sky12°C2 mph, SE2%10000m1011hPa40%
19-Jun-2024 15:00Clear Sky22°C7 mph, S1%10000m1011hPa22%
19-Jun-2024 18:00Clear Sky29°C13 mph, S0%10000m1008hPa13%
19-Jun-2024 21:00Clear Sky32°C13 mph, SW1%10000m1004hPa9%
20-Jun-2024 00:00Few Clouds32°C16 mph, SW11%10000m1003hPa8%
20-Jun-2024 03:00Scattered Clouds22°C9 mph, W34%10000m1007hPa19%
20-Jun-2024 06:00Few Clouds17°C22 mph, E17%10000m1013hPa70%
20-Jun-2024 09:00Light Rain17°C18 mph, SE0%10000m1014hPa73%
20-Jun-2024 12:00Light Rain16°C18 mph, SE0%10000m1015hPa81%
20-Jun-2024 15:00Clear Sky22°C29 mph, SE0%10000m1014hPa48%
20-Jun-2024 18:00Clear Sky28°C25 mph, SE0%10000m1011hPa30%
20-Jun-2024 21:00Clear Sky31°C25 mph, SE6%10000m1008hPa22%
21-Jun-2024 00:00Few Clouds27°C20 mph, SE21%10000m1008hPa32%